Time;durP1;ratioP1;P1;durP2;ratioP2;P2;SDS_P1;SDS_P2;PMS_P1;PMS_P2;Temp;Humidity;BMP_temperature;BMP_pressure;BME280_temperature;BME280_humidity;BME280_pressure;Samples;Min_cycle;Max_cycle;Signal;HPM_P1;HPM_P2
2023/01/21 00:01:42;;;;;;;;;;;;;;;;;;4967584;28;19914;-82
2023/01/21 00:04:08;;;;;;;;;;;;;;;;;;4972410;28;19914;-82
2023/01/21 00:06:35;;;;;;;;;;;;;;;;;;4954438;28;19966;-82
2023/01/21 00:09:00;;;;;;;;;;;;;;;;;;4968883;28;20446;-82
2023/01/21 00:11:25;;;;;;;;;;;;;;;;;;4967278;28;19922;-82
2023/01/21 00:13:51;;;;;;;;;;;;;;;;;;4970275;28;20009;-82
2023/01/21 00:16:16;;;;;;;;;;;;;;;;;;4990105;28;19918;-82
2023/01/21 00:18:42;;;;;;;;;;;;;;;;;;4989973;28;19914;-83
2023/01/21 00:21:07;;;;;;;;;;;;;;;;;;4990208;28;19983;-83
2023/01/21 00:23:32;;;;;;;;;;;;;;;;;;4989675;28;19950;-82
2023/01/21 00:25:58;;;;;;;;;;;;;;;;;;4972660;28;19978;-83
2023/01/21 00:28:23;;;;;;;;;;;;;;;;;;4980413;28;19921;-82
2023/01/21 00:30:49;;;;;;;;;;;;;;;;;;4953661;28;19966;-82
2023/01/21 00:33:17;;;;;;;;;;;;;;;;;;4985981;28;19921;-83
2023/01/21 00:35:42;;;;;;;;;;;;;;;;;;4988949;28;19922;-83
2023/01/21 00:38:08;;;;;;;;;;;;;;;;;;4988243;28;19918;-82
2023/01/21 00:40:33;;;;;;;;;;;;;;;;;;4988800;28;19957;-83
2023/01/21 00:42:59;;;;;;;;;;;;;;;;;;4992140;28;19914;-82
2023/01/21 00:45:24;;;;;;;;;;;;;;;;;;4980174;28;19918;-85
2023/01/21 00:47:50;;;;;;;;;;;;;;;;;;4982263;28;19983;-84
2023/01/21 00:50:15;;;;;;;;;;;;;;;;;;4978322;28;19918;-83
2023/01/21 00:52:41;;;;;;;;;;;;;;;;;;4962332;28;19966;-83
2023/01/21 00:55:06;;;;;;;;;;;;;;;;;;4975045;28;19922;-83
2023/01/21 00:57:32;;;;;;;;;;;;;;;;;;4951578;28;19934;-83
2023/01/21 01:00:00;;;;;;;;;;;;;;;;;;4967637;28;19909;-84
2023/01/21 01:02:26;;;;;;;;;;;;;;;;;;4999968;28;19978;-85
2023/01/21 01:04:52;;;;;;;;;;;;;;;;;;4982433;28;19906;-84
2023/01/21 01:07:17;;;;;;;;;;;;;;;;;;4999151;28;19926;-84
2023/01/21 01:09:43;;;;;;;;;;;;;;;;;;4982442;28;19982;-84
2023/01/21 01:36:47;;;;;;;;;;;;;;;;;;5249294;22;19921;-86
2023/01/21 01:40:10;;;;;;;;;;;;;;;;;;5000631;28;19925;-86
2023/01/21 02:17:18;;;;;;;;;;;;;;;;;;5414884;22;19952;-83
2023/01/21 02:19:43;;;;;;;;;;;;;;;;;;5240027;23;19909;-85
2023/01/21 02:22:11;;;;;;;;;;;;;;;;;;5325593;23;19931;-82
2023/01/21 02:24:37;;;;;;;;;;;;;;;;;;5092846;23;19909;-85
2023/01/21 02:27:04;;;;;;;;;;;;;;;;;;5193031;22;19944;-84
2023/01/21 02:29:30;;;;;;;;;;;;;;;;;;5194338;23;19916;-84
2023/01/21 02:31:55;;;;;;;;;;;;;;;;;;5122480;22;19917;-84
2023/01/21 02:34:29;;;;;;;;;;;;;;;;;;5147086;23;20315;-83
2023/01/21 02:36:57;;;;;;;;;;;;;;;;;;5171685;22;19936;-83
2023/01/21 02:39:23;;;;;;;;;;;;;;;;;;5567549;23;19908;-83
2023/01/21 02:44:27;;;;;;;;;;;;;;;;;;5286847;23;19932;-84
2023/01/21 02:46:55;;;;;;;;;;;;;;;;;;5118253;23;19913;-84
2023/01/21 02:52:05;;;;;;;;;;;;;;;;;;5629351;22;19931;-84
2023/01/21 02:54:34;;;;;;;;;;;;;;;;;;5053261;28;19987;-84
2023/01/21 02:59:36;;;;;;;;;;;;;;;;;;5159377;22;19930;-82
2023/01/21 03:07:26;;;;;;;;;;;;;;;;;;5677584;22;19909;-83
2023/01/21 03:20:24;;;;;;;;;;;;;;;;;;5140875;22;19924;-84
2023/01/21 03:28:20;;;;;;;;;;;;;;;;;;5627800;22;19909;-83
2023/01/21 03:47:01;;;;;;;;;;;;;;;;;;5038738;28;19905;-84
2023/01/21 03:52:13;;;;;;;;;;;;;;;;;;5192168;23;19909;-84
2023/01/21 03:54:39;;;;;;;;;;;;;;;;;;5017351;28;19909;-83
2023/01/21 03:57:05;;;;;;;;;;;;;;;;;;5026216;28;19910;-82
2023/01/21 04:02:21;;;;;;;;;;;;;;;;;;5404611;22;19909;-83
2023/01/21 04:07:28;;;;;;;;;;;;;;;;;;5285646;22;19921;-83
2023/01/21 04:10:01;;;;;;;;;;;;;;;;;;5066367;28;19968;-84
2023/01/21 04:12:52;;;;;;;;;;;;;;;;;;5099880;28;19917;-84
2023/01/21 04:15:17;;;;;;;;;;;;;;;;;;5614895;23;19924;-81
2023/01/21 04:17:44;;;;;;;;;;;;;;;;;;5046119;28;19932;-84
2023/01/21 04:20:14;;;;;;;;;;;;;;;;;;5029568;28;19966;-82
2023/01/21 04:22:40;;;;;;;;;;;;;;;;;;5062328;28;19940;-83
2023/01/21 04:25:20;;;;;;;;;;;;;;;;;;5795976;23;19912;-82
2023/01/21 04:46:59;;;;;;;;;;;;;;;;;;5733862;22;19931;-84
2023/01/21 04:57:49;;;;;;;;;;;;;;;;;;5638259;22;19916;-83
2023/01/21 05:03:06;;;;;;;;;;;;;;;;;;5610755;22;19992;-83
2023/01/21 05:05:33;;;;;;;;;;;;;;;;;;5044528;28;19917;-82
2023/01/21 05:08:07;;;;;;;;;;;;;;;;;;5044519;28;19917;-83
2023/01/21 05:43:18;;;;;;;;;;;;;;;;;;5443120;22;19924;-83
2023/01/21 05:45:46;;;;;;;;;;;;;;;;;;5064972;28;20001;-83
2023/01/21 05:48:12;;;;;;;;;;;;;;;;;;5064869;28;19901;-82
2023/01/21 05:50:44;;;;;;;;;;;;;;;;;;5363530;22;19923;-83
2023/01/21 06:01:17;;;;;;;;;;;;;;;;;;5134759;22;19944;-83
2023/01/21 06:04:09;;;;;;;;;;;;;;;;;;5077869;28;19901;-83
2023/01/21 06:22:46;;;;;;;;;;;;;;;;;;5281815;22;19928;-82
2023/01/21 06:25:16;;;;;;;;;;;;;;;;;;5059280;28;19925;-82
2023/01/21 06:27:47;;;;;;;;;;;;;;;;;;5044609;28;19924;-82
2023/01/21 06:30:24;;;;;;;;;;;;;;;;;;5077746;28;19913;-82
2023/01/21 06:32:58;;;;;;;;;;;;;;;;;;5043988;28;19919;-83
2023/01/21 06:35:41;;;;;;;;;;;;;;;;;;5042827;28;19928;-83
2023/01/21 06:38:09;;;;;;;;;;;;;;;;;;5041135;28;19913;-83
2023/01/21 06:40:37;;;;;;;;;;;;;;;;;;5044006;28;19919;-82
2023/01/21 06:43:05;;;;;;;;;;;;;;;;;;5044808;28;19901;-81
2023/01/21 07:30:37;;;;;;;;;;;;;;;;;;5806504;22;19949;-81
2023/01/21 07:35:44;;;;;;;;;;;;;;;;;;5246858;22;19908;-82
2023/01/21 07:38:13;;;;;;;;;;;;;;;;;;5889296;22;20036;-81
2023/01/21 07:40:44;;;;;;;;;;;;;;;;;;5098265;28;19929;-80
2023/01/21 07:48:44;;;;;;;;;;;;;;;;;;5574551;22;19913;-84
2023/01/21 07:59:20;;;;;;;;;;;;;;;;;;5299643;22;19909;-82
2023/01/21 08:01:48;;;;;;;;;;;;;;;;;;5082636;28;19982;-83
2023/01/21 08:04:15;;;;;;;;;;;;;;;;;;5058535;28;19903;-83
2023/01/21 08:06:41;;;;;;;;;;;;;;;;;;5599775;23;19952;-81
2023/01/21 08:09:06;;;;;;;;;;;;;;;;;;5405956;22;19908;-83
2023/01/21 08:11:32;;;;;;;;;;;;;;;;;;5044838;28;19932;-84
2023/01/21 08:19:29;;;;;;;;;;;;;;;;;;5742550;22;20936;-81
2023/01/21 08:21:58;;;;;;;;;;;;;;;;;;5046085;28;19992;-83
2023/01/21 08:32:36;;;;;;;;;;;;;;;;;;5447847;22;19925;-83
2023/01/21 08:35:01;;;;;;;;;;;;;;;;;;5062135;28;19913;-83
2023/01/21 08:37:30;;;;;;;;;;;;;;;;;;5056533;28;19980;-83
2023/01/21 08:40:01;;;;;;;;;;;;;;;;;;5039531;28;19955;-82
2023/01/21 08:42:30;;;;;;;;;;;;;;;;;;5005431;28;19920;-82
2023/01/21 08:44:59;;;;;;;;;;;;;;;;;;5005279;28;19913;-83
2023/01/21 08:47:39;;;;;;;;;;;;;;;;;;5054343;28;19913;-82
2023/01/21 08:50:22;;;;;;;;;;;;;;;;;;5404886;23;19909;-82
2023/01/21 08:52:58;;;;;;;;;;;;;;;;;;5060917;28;19907;-84
2023/01/21 08:55:33;;;;;;;;;;;;;;;;;;5043164;28;19916;-84
2023/01/21 08:57:58;;;;;;;;;;;;;;;;;;5041827;28;19902;-84
2023/01/21 09:00:30;;;;;;;;;;;;;;;;;;5042316;28;19905;-83
2023/01/21 09:13:39;;;;;;;;;;;;;;;;;;5582213;22;20259;-83
2023/01/21 09:21:33;;;;;;;;;;;;;;;;;;5658728;22;19976;-84
2023/01/21 09:32:13;;;;;;;;;;;;;;;;;;5849944;22;19929;-82
2023/01/21 09:34:40;;;;;;;;;;;;;;;;;;5677865;23;19975;-84
2023/01/21 09:37:08;;;;;;;;;;;;;;;;;;5055374;28;19916;-84
2023/01/21 09:39:34;;;;;;;;;;;;;;;;;;5043401;28;19896;-84
2023/01/21 09:41:59;;;;;;;;;;;;;;;;;;5055988;28;19959;-82
2023/01/21 09:44:25;;;;;;;;;;;;;;;;;;5041891;28;19901;-84
2023/01/21 09:46:50;;;;;;;;;;;;;;;;;;5040434;28;19913;-85
2023/01/21 09:49:16;;;;;;;;;;;;;;;;;;5052597;28;19977;-86
2023/01/21 09:51:41;;;;;;;;;;;;;;;;;;5067895;28;19909;-84
2023/01/21 09:54:07;;;;;;;;;;;;;;;;;;5052816;28;20016;-84
2023/01/21 09:56:32;;;;;;;;;;;;;;;;;;5042106;28;19921;-87
2023/01/21 09:59:01;;;;;;;;;;;;;;;;;;5057444;28;19947;-85
2023/01/21 10:01:27;;;;;;;;;;;;;;;;;;5034567;28;20006;-84
2023/01/21 10:03:52;;;;;;;;;;;;;;;;;;5037204;28;20366;-84
2023/01/21 10:06:20;;;;;;;;;;;;;;;;;;5019154;28;20302;-85
2023/01/21 10:08:45;;;;;;;;;;;;;;;;;;5019572;28;19912;-83
2023/01/21 10:11:11;;;;;;;;;;;;;;;;;;5012399;28;19909;-84
2023/01/21 10:13:36;;;;;;;;;;;;;;;;;;5017638;28;19917;-84
2023/01/21 10:16:02;;;;;;;;;;;;;;;;;;5023732;28;20297;-83
2023/01/21 10:18:28;;;;;;;;;;;;;;;;;;5045983;28;19912;-83
2023/01/21 10:20:53;;;;;;;;;;;;;;;;;;5030106;28;19920;-84
2023/01/21 10:23:19;;;;;;;;;;;;;;;;;;5045151;28;20004;-85
2023/01/21 10:25:44;;;;;;;;;;;;;;;;;;5026535;28;20297;-86
2023/01/21 10:28:10;;;;;;;;;;;;;;;;;;5043857;28;20276;-86
2023/01/21 10:30:35;;;;;;;;;;;;;;;;;;5033333;28;19913;-88
2023/01/21 10:33:00;;;;;;;;;;;;;;;;;;5044082;28;19913;-87
2023/01/21 10:35:26;;;;;;;;;;;;;;;;;;5004932;28;19917;-86
2023/01/21 10:37:51;;;;;;;;;;;;;;;;;;5024296;28;19920;-85
2023/01/21 10:40:41;;;;;;;;;;;;;;;;;;5040741;28;19970;-87
2023/01/21 10:43:02;;;;;;;;;;;;;;;;;;5026826;28;19996;-86
2023/01/21 10:45:27;;;;;;;;;;;;;;;;;;5021116;28;19952;-87
2023/01/21 10:47:53;;;;;;;;;;;;;;;;;;5002855;28;19913;-86
2023/01/21 10:50:18;;;;;;;;;;;;;;;;;;5041339;28;20274;-86
2023/01/21 10:52:45;;;;;;;;;;;;;;;;;;5005385;28;19920;-86
2023/01/21 10:55:10;;;;;;;;;;;;;;;;;;5019211;28;19921;-85
2023/01/21 10:57:36;;;;;;;;;;;;;;;;;;5038861;28;19948;-82
2023/01/21 11:00:01;;;;;;;;;;;;;;;;;;4987864;28;20404;-86
2023/01/21 11:02:27;;;;;;;;;;;;;;;;;;5029515;28;20298;-87
2023/01/21 11:04:52;;;;;;;;;;;;;;;;;;4992799;28;19917;-86
2023/01/21 11:07:18;;;;;;;;;;;;;;;;;;5018209;28;19963;-86
2023/01/21 11:09:43;;;;;;;;;;;;;;;;;;5034622;28;19963;-88
2023/01/21 11:12:09;;;;;;;;;;;;;;;;;;5008411;28;19913;-87
2023/01/21 11:14:34;;;;;;;;;;;;;;;;;;5001728;28;19980;-86
2023/01/21 11:17:00;;;;;;;;;;;;;;;;;;5011262;28;19913;-86
2023/01/21 11:19:25;;;;;;;;;;;;;;;;;;5035866;28;19913;-86
2023/01/21 11:21:51;;;;;;;;;;;;;;;;;;5004761;28;19913;-87
2023/01/21 11:24:16;;;;;;;;;;;;;;;;;;5001114;28;20362;-87
2023/01/21 11:26:42;;;;;;;;;;;;;;;;;;5011680;28;20301;-86
2023/01/21 11:29:07;;;;;;;;;;;;;;;;;;5022151;28;19909;-86
2023/01/21 11:31:33;;;;;;;;;;;;;;;;;;5018065;28;19912;-85
2023/01/21 11:33:58;;;;;;;;;;;;;;;;;;4990878;28;19916;-86
2023/01/21 11:36:23;;;;;;;;;;;;;;;;;;5029273;28;20260;-87
2023/01/21 11:38:49;;;;;;;;;;;;;;;;;;5030438;28;19913;-86
2023/01/21 11:41:14;;;;;;;;;;;;;;;;;;5004845;28;19913;-88
2023/01/21 11:43:40;;;;;;;;;;;;;;;;;;5050809;28;19913;-86
2023/01/21 11:46:06;;;;;;;;;;;;;;;;;;5031744;28;19916;-88
2023/01/21 11:48:31;;;;;;;;;;;;;;;;;;5028366;28;19971;-87
2023/01/21 11:50:56;;;;;;;;;;;;;;;;;;5048757;28;20068;-88
2023/01/21 11:53:22;;;;;;;;;;;;;;;;;;5011033;28;19913;-84
2023/01/21 11:55:48;;;;;;;;;;;;;;;;;;5017091;28;19982;-85
2023/01/21 11:58:14;;;;;;;;;;;;;;;;;;5016531;28;19924;-84
2023/01/21 12:00:39;;;;;;;;;;;;;;;;;;5028986;28;19917;-87
2023/01/21 12:03:05;;;;;;;;;;;;;;;;;;5012023;28;20421;-87
2023/01/21 12:05:31;;;;;;;;;;;;;;;;;;5042497;28;19916;-88
2023/01/21 12:07:56;;;;;;;;;;;;;;;;;;5008373;28;19920;-85
2023/01/21 12:10:22;;;;;;;;;;;;;;;;;;5028227;28;19913;-87
2023/01/21 12:12:47;;;;;;;;;;;;;;;;;;5040577;28;19916;-86
2023/01/21 12:15:13;;;;;;;;;;;;;;;;;;5017275;28;20127;-86
2023/01/21 12:17:38;;;;;;;;;;;;;;;;;;5026623;28;19913;-87
2023/01/21 12:20:04;;;;;;;;;;;;;;;;;;5006941;28;19920;-87
2023/01/21 12:22:30;;;;;;;;;;;;;;;;;;5023501;28;20352;-85
2023/01/21 12:24:55;;;;;;;;;;;;;;;;;;5011979;28;19934;-88
2023/01/21 12:27:21;;;;;;;;;;;;;;;;;;5003085;28;19913;-86
2023/01/21 12:29:47;;;;;;;;;;;;;;;;;;5047835;28;19917;-86
2023/01/21 12:32:12;;;;;;;;;;;;;;;;;;5022086;28;19913;-89
2023/01/21 12:34:39;;;;;;;;;;;;;;;;;;5037806;28;19924;-86
2023/01/21 12:37:05;;;;;;;;;;;;;;;;;;5007790;28;19913;-86
2023/01/21 12:39:31;;;;;;;;;;;;;;;;;;5022408;28;19996;-84
2023/01/21 12:41:56;;;;;;;;;;;;;;;;;;5043211;28;19917;-84
2023/01/21 12:44:22;;;;;;;;;;;;;;;;;;5007946;28;19971;-85
2023/01/21 12:46:47;;;;;;;;;;;;;;;;;;5004525;28;19913;-84
2023/01/21 12:49:14;;;;;;;;;;;;;;;;;;5001760;28;19913;-84
2023/01/21 12:51:39;;;;;;;;;;;;;;;;;;5022909;28;19920;-85
2023/01/21 12:54:05;;;;;;;;;;;;;;;;;;5019820;28;19913;-86
2023/01/21 12:56:31;;;;;;;;;;;;;;;;;;5021701;28;20293;-84
2023/01/21 12:58:56;;;;;;;;;;;;;;;;;;5023896;28;19975;-82
2023/01/21 13:01:22;;;;;;;;;;;;;;;;;;5015715;28;20020;-81
2023/01/21 13:03:50;;;;;;;;;;;;;;;;;;5024996;28;20404;-85
2023/01/21 13:06:16;;;;;;;;;;;;;;;;;;5019659;28;19914;-84
2023/01/21 13:08:41;;;;;;;;;;;;;;;;;;5003942;28;19918;-86
2023/01/21 13:11:07;;;;;;;;;;;;;;;;;;5022050;28;19924;-83
2023/01/21 13:13:32;;;;;;;;;;;;;;;;;;5002902;28;20321;-85
2023/01/21 13:15:58;;;;;;;;;;;;;;;;;;5009617;28;19917;-84
2023/01/21 13:18:24;;;;;;;;;;;;;;;;;;5013444;28;19949;-85
2023/01/21 13:20:51;;;;;;;;;;;;;;;;;;5010511;28;19913;-85
2023/01/21 13:23:17;;;;;;;;;;;;;;;;;;4999266;28;19916;-85
2023/01/21 13:25:46;;;;;;;;;;;;;;;;;;5015880;28;19963;-86
2023/01/21 13:28:24;;;;;;;;;;;;;;;;;;4993305;28;20018;-83
2023/01/21 13:30:50;;;;;;;;;;;;;;;;;;5023947;28;19919;-86
2023/01/21 13:33:15;;;;;;;;;;;;;;;;;;5035089;28;19913;-86
2023/01/21 13:35:41;;;;;;;;;;;;;;;;;;5017786;28;19917;-86
2023/01/21 13:38:06;;;;;;;;;;;;;;;;;;5012233;28;19921;-88
2023/01/21 13:40:33;;;;;;;;;;;;;;;;;;5001186;28;19913;-86
2023/01/21 13:42:58;;;;;;;;;;;;;;;;;;5029185;28;19913;-85
2023/01/21 13:45:27;;;;;;;;;;;;;;;;;;5015762;28;19920;-87
2023/01/21 13:47:52;;;;;;;;;;;;;;;;;;5001048;28;20393;-86
2023/01/21 13:50:18;;;;;;;;;;;;;;;;;;5008644;28;19943;-86
2023/01/21 13:52:43;;;;;;;;;;;;;;;;;;5000844;28;20293;-87
2023/01/21 13:55:09;;;;;;;;;;;;;;;;;;5013598;28;19970;-88
2023/01/21 13:57:35;;;;;;;;;;;;;;;;;;5022133;28;20362;-87
2023/01/21 14:00:00;;;;;;;;;;;;;;;;;;5017327;28;19971;-88
2023/01/21 14:02:26;;;;;;;;;;;;;;;;;;5002177;28;19935;-85
2023/01/21 14:04:51;;;;;;;;;;;;;;;;;;5004341;28;19921;-87
2023/01/21 14:07:20;;;;;;;;;;;;;;;;;;5001915;28;19924;-85
2023/01/21 14:09:46;;;;;;;;;;;;;;;;;;4992958;28;19936;-86
2023/01/21 14:12:11;;;;;;;;;;;;;;;;;;5030961;28;19917;-88
2023/01/21 14:14:37;;;;;;;;;;;;;;;;;;5002357;28;20387;-90
2023/01/21 14:17:02;;;;;;;;;;;;;;;;;;4986719;28;20318;-87
2023/01/21 14:19:27;;;;;;;;;;;;;;;;;;5026350;28;19912;-87
2023/01/21 14:21:53;;;;;;;;;;;;;;;;;;5028691;28;19909;-88
2023/01/21 14:24:19;;;;;;;;;;;;;;;;;;5017904;28;19913;-88
2023/01/21 14:26:44;;;;;;;;;;;;;;;;;;5054875;28;20002;-88
2023/01/21 14:29:10;;;;;;;;;;;;;;;;;;5023306;28;19913;-90
2023/01/21 14:31:50;;;;;;;;;;;;;;;;;;5000018;28;19913;-87
2023/01/21 14:34:18;;;;;;;;;;;;;;;;;;5017489;28;19920;-87
2023/01/21 14:36:44;;;;;;;;;;;;;;;;;;5016782;28;19944;-87
2023/01/21 14:39:10;;;;;;;;;;;;;;;;;;5017205;28;20000;-87
2023/01/21 14:41:35;;;;;;;;;;;;;;;;;;4990681;28;20354;-86
2023/01/21 14:44:04;;;;;;;;;;;;;;;;;;5038004;28;20421;-85
2023/01/21 14:46:30;;;;;;;;;;;;;;;;;;5037686;28;19909;-87
2023/01/21 14:48:55;;;;;;;;;;;;;;;;;;4989595;28;19912;-88
2023/01/21 14:51:21;;;;;;;;;;;;;;;;;;5031102;28;20540;-87
2023/01/21 14:53:50;;;;;;;;;;;;;;;;;;5013369;28;19913;-87
2023/01/21 14:56:16;;;;;;;;;;;;;;;;;;5018260;28;19967;-86
2023/01/21 14:58:44;;;;;;;;;;;;;;;;;;5002095;28;19949;-87
2023/01/21 15:01:10;;;;;;;;;;;;;;;;;;5016285;28;20085;-85
2023/01/21 15:03:35;;;;;;;;;;;;;;;;;;4995078;28;19945;-87
2023/01/21 15:06:01;;;;;;;;;;;;;;;;;;5044102;28;20286;-87
2023/01/21 15:08:26;;;;;;;;;;;;;;;;;;5052952;28;20408;-86
2023/01/21 15:10:52;;;;;;;;;;;;;;;;;;5024473;28;19917;-84
2023/01/21 15:13:17;;;;;;;;;;;;;;;;;;5051886;28;19913;-87
2023/01/21 15:15:43;;;;;;;;;;;;;;;;;;5030377;28;19927;-88
2023/01/21 15:18:09;;;;;;;;;;;;;;;;;;5019582;28;19979;-86
2023/01/21 15:20:34;;;;;;;;;;;;;;;;;;5017284;28;20255;-86
2023/01/21 15:23:00;;;;;;;;;;;;;;;;;;5036269;28;19909;-87
2023/01/21 15:25:25;;;;;;;;;;;;;;;;;;5004487;28;19913;-86
2023/01/21 15:27:51;;;;;;;;;;;;;;;;;;4995486;28;19967;-87
2023/01/21 15:30:16;;;;;;;;;;;;;;;;;;5015604;28;19936;-88
2023/01/21 15:32:42;;;;;;;;;;;;;;;;;;5040566;28;19967;-86
2023/01/21 15:35:11;;;;;;;;;;;;;;;;;;5095928;23;19931;-82
2023/01/21 15:37:41;;;;;;;;;;;;;;;;;;5077986;28;19908;-84
2023/01/21 15:40:10;;;;;;;;;;;;;;;;;;5061634;28;19981;-85
2023/01/21 15:42:38;;;;;;;;;;;;;;;;;;5061154;28;19897;-85
2023/01/21 15:45:08;;;;;;;;;;;;;;;;;;5057204;28;19913;-85
2023/01/21 15:47:34;;;;;;;;;;;;;;;;;;5041463;28;19920;-84
2023/01/21 15:50:00;;;;;;;;;;;;;;;;;;5040818;28;19913;-84
2023/01/21 15:52:30;;;;;;;;;;;;;;;;;;5041641;28;19913;-84
2023/01/21 15:54:56;;;;;;;;;;;;;;;;;;5057742;28;19904;-83
2023/01/21 15:57:22;;;;;;;;;;;;;;;;;;5319770;23;19908;-83
2023/01/21 15:59:50;;;;;;;;;;;;;;;;;;5244059;22;19915;-84
2023/01/21 16:50:29;;;;;;;;;;;;;;;;;;6170326;22;2060239;-81
2023/01/21 17:12:46;;;;;;;;;;;;;;;;;;6182741;22;19958;-81
2023/01/21 17:15:16;;;;;;;;;;;;;;;;;;6213611;23;19904;-83
2023/01/21 17:17:41;;;;;;;;;;;;;;;;;;6177674;23;19899;-83
2023/01/21 17:20:07;;;;;;;;;;;;;;;;;;6201654;23;19935;-83
2023/01/21 17:22:40;;;;;;;;;;;;;;;;;;6226277;23;19918;-83
2023/01/21 17:25:08;;;;;;;;;;;;;;;;;;6201984;23;19908;-82
2023/01/21 17:27:34;;;;;;;;;;;;;;;;;;6201686;23;19915;-83
2023/01/21 17:29:59;;;;;;;;;;;;;;;;;;6225114;23;19975;-84
2023/01/21 17:32:25;;;;;;;;;;;;;;;;;;6227239;23;19919;-84
2023/01/21 17:34:56;;;;;;;;;;;;;;;;;;6227958;23;19919;-82
2023/01/21 17:37:24;;;;;;;;;;;;;;;;;;6202379;23;19920;-84
2023/01/21 17:39:50;;;;;;;;;;;;;;;;;;6200039;23;19967;-84
2023/01/21 17:42:16;;;;;;;;;;;;;;;;;;6224147;23;19908;-82
2023/01/21 17:44:44;;;;;;;;;;;;;;;;;;6224276;23;19934;-82
2023/01/21 17:47:10;;;;;;;;;;;;;;;;;;6220813;23;19900;-84
2023/01/21 17:49:36;;;;;;;;;;;;;;;;;;6219653;23;19896;-84
2023/01/21 17:52:02;;;;;;;;;;;;;;;;;;6193193;23;19987;-82
2023/01/21 17:59:52;;;;;;;;;;;;;;;;;;6174755;22;19920;-83
2023/01/21 18:02:23;;;;;;;;;;;;;;;;;;6250346;22;19908;-84
2023/01/21 18:07:25;;;;;;;;;;;;;;;;;;6272556;22;19943;-83
2023/01/21 20:13:35;;;;;;;;;;;;;;;;;;6182271;22;19903;-79
2023/01/21 20:16:25;;;;;;;;;;;;;;;;;;6181887;22;19911;-86
2023/01/21 20:54:13;;;;;;;;;;;;;;;;;;6192159;22;19947;-81
2023/01/21 21:15:32;;;;;;;;;;;;;;;;;;6203728;22;19903;-85
2023/01/21 21:17:59;;;;;;;;;;;;;;;;;;6147790;22;19923;-80
